sensor_id;sensor_type;location;lat;lon;timestamp;P1;durP1;ratioP1;P2;durP2;ratioP2
12088;SDS011;6107;49.078;8.578;2022-10-23T00:00:31;7.93;;;2.20;;
12088;SDS011;6107;49.078;8.578;2022-10-23T00:02:57;3.90;;;1.97;;
12088;SDS011;6107;49.078;8.578;2022-10-23T00:05:23;12.40;;;2.50;;
12088;SDS011;6107;49.078;8.578;2022-10-23T00:07:54;7.47;;;2.23;;
12088;SDS011;6107;49.078;8.578;2022-10-23T00:10:21;4.50;;;1.90;;
12088;SDS011;6107;49.078;8.578;2022-10-23T00:12:48;8.93;;;2.10;;
12088;SDS011;6107;49.078;8.578;2022-10-23T00:15:15;7.07;;;1.90;;
12088;SDS011;6107;49.078;8.578;2022-10-23T00:17:43;4.80;;;2.17;;
12088;SDS011;6107;49.078;8.578;2022-10-23T00:20:09;5.93;;;2.23;;
12088;SDS011;6107;49.078;8.578;2022-10-23T00:22:36;7.97;;;2.23;;
12088;SDS011;6107;49.078;8.578;2022-10-23T00:25:06;6.43;;;2.20;;
12088;SDS011;6107;49.078;8.578;2022-10-23T00:27:32;4.47;;;2.40;;
12088;SDS011;6107;49.078;8.578;2022-10-23T00:29:58;8.37;;;2.83;;
12088;SDS011;6107;49.078;8.578;2022-10-23T00:32:24;4.03;;;2.13;;
12088;SDS011;6107;49.078;8.578;2022-10-23T00:34:51;3.67;;;2.10;;
12088;SDS011;6107;49.078;8.578;2022-10-23T00:37:17;4.93;;;2.27;;
12088;SDS011;6107;49.078;8.578;2022-10-23T00:39:43;6.57;;;2.53;;
12088;SDS011;6107;49.078;8.578;2022-10-23T00:42:09;4.23;;;2.43;;
12088;SDS011;6107;49.078;8.578;2022-10-23T00:47:06;4.57;;;1.93;;
12088;SDS011;6107;49.078;8.578;2022-10-23T00:49:31;3.90;;;1.93;;
12088;SDS011;6107;49.078;8.578;2022-10-23T00:51:58;5.63;;;2.23;;
12088;SDS011;6107;49.078;8.578;2022-10-23T00:54:26;6.13;;;2.40;;
12088;SDS011;6107;49.078;8.578;2022-10-23T00:56:57;5.27;;;2.30;;
12088;SDS011;6107;49.078;8.578;2022-10-23T00:59:25;2.87;;;2.13;;
12088;SDS011;6107;49.078;8.578;2022-10-23T01:01:51;5.60;;;2.30;;
12088;SDS011;6107;49.078;8.578;2022-10-23T01:04:17;4.00;;;2.17;;
12088;SDS011;6107;49.078;8.578;2022-10-23T01:06:44;2.43;;;2.00;;
12088;SDS011;6107;49.078;8.578;2022-10-23T01:09:36;4.73;;;2.20;;
12088;SDS011;6107;49.078;8.578;2022-10-23T01:12:21;6.23;;;2.30;;
12088;SDS011;6107;49.078;8.578;2022-10-23T01:15:34;6.00;;;2.10;;
12088;SDS011;6107;49.078;8.578;2022-10-23T01:20:35;4.27;;;2.20;;
12088;SDS011;6107;49.078;8.578;2022-10-23T01:23:05;6.73;;;2.20;;
12088;SDS011;6107;49.078;8.578;2022-10-23T01:28:25;4.13;;;2.07;;
12088;SDS011;6107;49.078;8.578;2022-10-23T01:31:16;3.80;;;2.60;;
12088;SDS011;6107;49.078;8.578;2022-10-23T01:33:50;4.10;;;2.20;;
12088;SDS011;6107;49.078;8.578;2022-10-23T01:36:24;7.93;;;2.90;;
12088;SDS011;6107;49.078;8.578;2022-10-23T01:38:55;6.03;;;2.57;;
12088;SDS011;6107;49.078;8.578;2022-10-23T01:44:13;5.00;;;2.23;;
12088;SDS011;6107;49.078;8.578;2022-10-23T01:46:43;7.40;;;2.60;;
12088;SDS011;6107;49.078;8.578;2022-10-23T01:49:11;5.57;;;2.60;;
12088;SDS011;6107;49.078;8.578;2022-10-23T01:51:38;7.77;;;2.77;;
12088;SDS011;6107;49.078;8.578;2022-10-23T01:54:08;3.47;;;2.40;;
12088;SDS011;6107;49.078;8.578;2022-10-23T01:56:37;3.70;;;2.60;;
12088;SDS011;6107;49.078;8.578;2022-10-23T01:59:07;8.97;;;2.83;;
12088;SDS011;6107;49.078;8.578;2022-10-23T02:01:36;7.90;;;2.80;;
12088;SDS011;6107;49.078;8.578;2022-10-23T02:04:05;7.00;;;3.10;;
12088;SDS011;6107;49.078;8.578;2022-10-23T02:06:34;11.23;;;3.03;;
12088;SDS011;6107;49.078;8.578;2022-10-23T02:08:59;4.83;;;3.30;;
12088;SDS011;6107;49.078;8.578;2022-10-23T02:11:25;5.60;;;3.00;;
12088;SDS011;6107;49.078;8.578;2022-10-23T02:14:05;6.33;;;3.03;;
12088;SDS011;6107;49.078;8.578;2022-10-23T02:16:37;5.93;;;2.80;;
12088;SDS011;6107;49.078;8.578;2022-10-23T02:21:54;4.80;;;2.87;;
12088;SDS011;6107;49.078;8.578;2022-10-23T02:24:43;4.90;;;2.80;;
12088;SDS011;6107;49.078;8.578;2022-10-23T02:27:16;5.23;;;2.80;;
12088;SDS011;6107;49.078;8.578;2022-10-23T02:29:49;7.37;;;2.70;;
12088;SDS011;6107;49.078;8.578;2022-10-23T02:32:19;6.40;;;2.67;;
12088;SDS011;6107;49.078;8.578;2022-10-23T02:34:48;7.07;;;2.73;;
12088;SDS011;6107;49.078;8.578;2022-10-23T02:37:14;7.50;;;2.97;;
12088;SDS011;6107;49.078;8.578;2022-10-23T02:39:39;5.77;;;2.60;;
12088;SDS011;6107;49.078;8.578;2022-10-23T02:42:17;6.17;;;3.00;;
12088;SDS011;6107;49.078;8.578;2022-10-23T02:45:07;3.20;;;2.40;;
12088;SDS011;6107;49.078;8.578;2022-10-23T02:53:17;5.30;;;2.63;;
12088;SDS011;6107;49.078;8.578;2022-10-23T03:00:55;4.67;;;2.50;;
12088;SDS011;6107;49.078;8.578;2022-10-23T03:03:33;5.83;;;2.27;;
12088;SDS011;6107;49.078;8.578;2022-10-23T03:06:02;6.97;;;2.63;;
12088;SDS011;6107;49.078;8.578;2022-10-23T03:08:28;3.87;;;2.63;;
12088;SDS011;6107;49.078;8.578;2022-10-23T03:10:53;7.63;;;2.90;;
12088;SDS011;6107;49.078;8.578;2022-10-23T03:13:19;5.80;;;3.10;;
12088;SDS011;6107;49.078;8.578;2022-10-23T03:15:44;4.50;;;2.47;;
12088;SDS011;6107;49.078;8.578;2022-10-23T03:18:10;5.80;;;2.57;;
12088;SDS011;6107;49.078;8.578;2022-10-23T03:20:36;4.23;;;2.50;;
12088;SDS011;6107;49.078;8.578;2022-10-23T03:23:01;4.97;;;3.00;;
12088;SDS011;6107;49.078;8.578;2022-10-23T03:25:27;6.17;;;2.60;;
12088;SDS011;6107;49.078;8.578;2022-10-23T03:27:52;4.37;;;2.47;;
12088;SDS011;6107;49.078;8.578;2022-10-23T03:30:18;6.93;;;2.73;;
12088;SDS011;6107;49.078;8.578;2022-10-23T03:32:44;3.77;;;2.40;;
12088;SDS011;6107;49.078;8.578;2022-10-23T03:35:09;4.83;;;2.83;;
12088;SDS011;6107;49.078;8.578;2022-10-23T03:37:35;3.53;;;2.53;;
12088;SDS011;6107;49.078;8.578;2022-10-23T03:40:01;6.30;;;2.90;;
12088;SDS011;6107;49.078;8.578;2022-10-23T03:42:26;5.30;;;3.17;;
12088;SDS011;6107;49.078;8.578;2022-10-23T03:44:52;5.47;;;2.87;;
12088;SDS011;6107;49.078;8.578;2022-10-23T03:47:17;3.30;;;2.40;;
12088;SDS011;6107;49.078;8.578;2022-10-23T03:49:43;2.87;;;2.40;;
12088;SDS011;6107;49.078;8.578;2022-10-23T03:52:08;5.93;;;2.40;;
12088;SDS011;6107;49.078;8.578;2022-10-23T03:54:34;4.30;;;3.03;;
12088;SDS011;6107;49.078;8.578;2022-10-23T03:57:00;3.67;;;2.37;;
12088;SDS011;6107;49.078;8.578;2022-10-23T03:59:26;9.53;;;2.63;;
12088;SDS011;6107;49.078;8.578;2022-10-23T04:01:52;4.03;;;2.50;;
12088;SDS011;6107;49.078;8.578;2022-10-23T04:04:18;6.53;;;2.63;;
12088;SDS011;6107;49.078;8.578;2022-10-23T04:06:43;7.17;;;3.00;;
12088;SDS011;6107;49.078;8.578;2022-10-23T04:09:09;7.40;;;2.97;;
12088;SDS011;6107;49.078;8.578;2022-10-23T04:11:35;8.13;;;4.37;;
12088;SDS011;6107;49.078;8.578;2022-10-23T04:14:00;7.00;;;3.73;;
12088;SDS011;6107;49.078;8.578;2022-10-23T04:16:26;4.10;;;2.70;;
12088;SDS011;6107;49.078;8.578;2022-10-23T04:18:51;3.27;;;2.70;;
12088;SDS011;6107;49.078;8.578;2022-10-23T04:21:17;6.53;;;2.97;;
12088;SDS011;6107;49.078;8.578;2022-10-23T04:23:42;5.30;;;2.83;;
12088;SDS011;6107;49.078;8.578;2022-10-23T04:26:08;5.03;;;2.77;;
12088;SDS011;6107;49.078;8.578;2022-10-23T04:28:33;7.23;;;3.00;;
12088;SDS011;6107;49.078;8.578;2022-10-23T04:30:59;8.90;;;3.17;;
12088;SDS011;6107;49.078;8.578;2022-10-23T04:33:25;3.60;;;2.67;;
12088;SDS011;6107;49.078;8.578;2022-10-23T04:35:50;6.13;;;2.83;;
12088;SDS011;6107;49.078;8.578;2022-10-23T04:38:16;4.50;;;3.37;;
12088;SDS011;6107;49.078;8.578;2022-10-23T04:40:41;5.13;;;2.80;;
12088;SDS011;6107;49.078;8.578;2022-10-23T04:43:07;6.40;;;3.60;;
12088;SDS011;6107;49.078;8.578;2022-10-23T04:45:32;8.27;;;4.70;;
12088;SDS011;6107;49.078;8.578;2022-10-23T04:47:58;6.57;;;4.53;;
12088;SDS011;6107;49.078;8.578;2022-10-23T04:50:24;4.33;;;3.30;;
12088;SDS011;6107;49.078;8.578;2022-10-23T04:52:52;3.87;;;3.00;;
12088;SDS011;6107;49.078;8.578;2022-10-23T04:55:19;5.77;;;2.60;;
12088;SDS011;6107;49.078;8.578;2022-10-23T04:57:44;5.97;;;2.60;;
12088;SDS011;6107;49.078;8.578;2022-10-23T05:00:11;3.27;;;2.70;;
12088;SDS011;6107;49.078;8.578;2022-10-23T05:02:38;6.57;;;2.90;;
12088;SDS011;6107;49.078;8.578;2022-10-23T05:05:03;5.97;;;2.60;;
12088;SDS011;6107;49.078;8.578;2022-10-23T05:07:30;5.53;;;2.60;;
12088;SDS011;6107;49.078;8.578;2022-10-23T05:09:55;6.07;;;3.23;;
12088;SDS011;6107;49.078;8.578;2022-10-23T05:12:21;20.90;;;9.97;;
12088;SDS011;6107;49.078;8.578;2022-10-23T05:14:49;5.80;;;4.27;;
12088;SDS011;6107;49.078;8.578;2022-10-23T05:17:19;5.17;;;2.67;;
12088;SDS011;6107;49.078;8.578;2022-10-23T05:20:06;6.80;;;3.70;;
12088;SDS011;6107;49.078;8.578;2022-10-23T05:22:36;5.73;;;2.60;;
12088;SDS011;6107;49.078;8.578;2022-10-23T05:25:04;7.00;;;2.90;;
12088;SDS011;6107;49.078;8.578;2022-10-23T05:27:30;4.33;;;2.60;;
12088;SDS011;6107;49.078;8.578;2022-10-23T05:29:56;6.83;;;2.90;;
12088;SDS011;6107;49.078;8.578;2022-10-23T05:32:21;3.57;;;3.00;;
12088;SDS011;6107;49.078;8.578;2022-10-23T05:34:50;5.77;;;3.00;;
12088;SDS011;6107;49.078;8.578;2022-10-23T05:37:15;11.57;;;3.30;;
12088;SDS011;6107;49.078;8.578;2022-10-23T05:39:41;6.37;;;3.37;;
12088;SDS011;6107;49.078;8.578;2022-10-23T05:42:07;6.83;;;3.63;;
12088;SDS011;6107;49.078;8.578;2022-10-23T05:44:33;5.33;;;3.00;;
12088;SDS011;6107;49.078;8.578;2022-10-23T05:46:59;3.37;;;2.53;;
12088;SDS011;6107;49.078;8.578;2022-10-23T05:49:25;3.20;;;2.73;;
12088;SDS011;6107;49.078;8.578;2022-10-23T05:51:50;4.77;;;2.87;;
12088;SDS011;6107;49.078;8.578;2022-10-23T05:54:16;4.90;;;2.60;;
12088;SDS011;6107;49.078;8.578;2022-10-23T05:56:41;5.13;;;2.70;;
12088;SDS011;6107;49.078;8.578;2022-10-23T05:59:07;5.90;;;2.53;;
12088;SDS011;6107;49.078;8.578;2022-10-23T06:01:34;4.40;;;2.30;;
12088;SDS011;6107;49.078;8.578;2022-10-23T06:03:59;4.40;;;2.50;;
12088;SDS011;6107;49.078;8.578;2022-10-23T06:06:25;4.73;;;2.43;;
12088;SDS011;6107;49.078;8.578;2022-10-23T06:08:51;6.50;;;2.57;;
12088;SDS011;6107;49.078;8.578;2022-10-23T06:11:17;3.37;;;2.47;;
12088;SDS011;6107;49.078;8.578;2022-10-23T06:13:43;3.70;;;2.53;;
12088;SDS011;6107;49.078;8.578;2022-10-23T06:16:10;5.90;;;2.70;;
12088;SDS011;6107;49.078;8.578;2022-10-23T06:18:38;6.27;;;2.10;;
12088;SDS011;6107;49.078;8.578;2022-10-23T06:21:04;4.87;;;2.10;;
12088;SDS011;6107;49.078;8.578;2022-10-23T06:23:31;5.77;;;2.20;;
12088;SDS011;6107;49.078;8.578;2022-10-23T06:25:57;5.97;;;2.60;;
12088;SDS011;6107;49.078;8.578;2022-10-23T06:28:23;9.07;;;2.63;;
12088;SDS011;6107;49.078;8.578;2022-10-23T06:30:48;4.23;;;2.23;;
12088;SDS011;6107;49.078;8.578;2022-10-23T06:33:14;7.90;;;2.43;;
12088;SDS011;6107;49.078;8.578;2022-10-23T06:35:39;3.77;;;2.17;;
12088;SDS011;6107;49.078;8.578;2022-10-23T06:38:05;4.57;;;2.47;;
12088;SDS011;6107;49.078;8.578;2022-10-23T06:40:32;2.83;;;2.47;;
12088;SDS011;6107;49.078;8.578;2022-10-23T06:42:58;4.30;;;2.50;;
12088;SDS011;6107;49.078;8.578;2022-10-23T06:45:24;5.53;;;2.20;;
12088;SDS011;6107;49.078;8.578;2022-10-23T06:47:50;2.50;;;2.20;;
12088;SDS011;6107;49.078;8.578;2022-10-23T06:50:16;6.70;;;2.70;;
12088;SDS011;6107;49.078;8.578;2022-10-23T06:52:41;4.23;;;2.60;;
12088;SDS011;6107;49.078;8.578;2022-10-23T06:55:07;8.13;;;2.43;;
12088;SDS011;6107;49.078;8.578;2022-10-23T06:57:33;7.53;;;2.30;;
12088;SDS011;6107;49.078;8.578;2022-10-23T06:59:58;6.93;;;3.67;;
12088;SDS011;6107;49.078;8.578;2022-10-23T07:02:24;9.43;;;4.30;;
12088;SDS011;6107;49.078;8.578;2022-10-23T07:04:49;5.53;;;2.47;;
12088;SDS011;6107;49.078;8.578;2022-10-23T07:07:15;4.10;;;2.47;;
12088;SDS011;6107;49.078;8.578;2022-10-23T07:09:40;6.67;;;2.83;;
12088;SDS011;6107;49.078;8.578;2022-10-23T07:12:06;4.87;;;2.00;;
12088;SDS011;6107;49.078;8.578;2022-10-23T07:14:31;3.37;;;2.20;;
12088;SDS011;6107;49.078;8.578;2022-10-23T07:16:57;8.00;;;2.20;;
12088;SDS011;6107;49.078;8.578;2022-10-23T07:19:23;3.73;;;2.13;;
12088;SDS011;6107;49.078;8.578;2022-10-23T07:21:49;10.63;;;4.20;;
12088;SDS011;6107;49.078;8.578;2022-10-23T07:24:14;10.97;;;4.00;;
12088;SDS011;6107;49.078;8.578;2022-10-23T07:26:40;5.93;;;2.67;;
12088;SDS011;6107;49.078;8.578;2022-10-23T07:29:05;12.30;;;5.30;;
12088;SDS011;6107;49.078;8.578;2022-10-23T07:31:31;13.17;;;7.57;;
12088;SDS011;6107;49.078;8.578;2022-10-23T07:33:57;6.47;;;2.50;;
12088;SDS011;6107;49.078;8.578;2022-10-23T07:36:23;5.23;;;2.40;;
12088;SDS011;6107;49.078;8.578;2022-10-23T07:38:49;11.93;;;7.43;;
12088;SDS011;6107;49.078;8.578;2022-10-23T07:41:15;12.13;;;7.20;;
12088;SDS011;6107;49.078;8.578;2022-10-23T07:43:40;7.10;;;5.33;;
12088;SDS011;6107;49.078;8.578;2022-10-23T07:46:06;6.17;;;2.47;;
12088;SDS011;6107;49.078;8.578;2022-10-23T07:48:33;4.83;;;2.23;;
12088;SDS011;6107;49.078;8.578;2022-10-23T07:51:01;3.00;;;2.20;;
12088;SDS011;6107;49.078;8.578;2022-10-23T07:53:32;5.07;;;2.07;;
12088;SDS011;6107;49.078;8.578;2022-10-23T07:55:59;2.40;;;2.13;;
12088;SDS011;6107;49.078;8.578;2022-10-23T07:58:26;3.80;;;2.10;;
12088;SDS011;6107;49.078;8.578;2022-10-23T08:00:53;4.97;;;2.20;;
12088;SDS011;6107;49.078;8.578;2022-10-23T08:03:22;6.33;;;2.60;;
12088;SDS011;6107;49.078;8.578;2022-10-23T08:05:48;10.83;;;5.60;;
12088;SDS011;6107;49.078;8.578;2022-10-23T08:08:14;15.30;;;7.70;;
12088;SDS011;6107;49.078;8.578;2022-10-23T08:10:40;8.13;;;4.60;;
12088;SDS011;6107;49.078;8.578;2022-10-23T08:13:06;8.37;;;3.90;;
12088;SDS011;6107;49.078;8.578;2022-10-23T08:15:33;7.73;;;3.97;;
12088;SDS011;6107;49.078;8.578;2022-10-23T08:17:59;5.23;;;3.73;;
12088;SDS011;6107;49.078;8.578;2022-10-23T08:20:24;5.10;;;3.17;;
12088;SDS011;6107;49.078;8.578;2022-10-23T08:22:50;4.20;;;1.90;;
12088;SDS011;6107;49.078;8.578;2022-10-23T08:25:16;3.60;;;2.17;;
12088;SDS011;6107;49.078;8.578;2022-10-23T08:27:41;5.20;;;3.40;;
12088;SDS011;6107;49.078;8.578;2022-10-23T08:30:07;2.80;;;2.33;;
12088;SDS011;6107;49.078;8.578;2022-10-23T08:32:33;4.03;;;2.33;;
12088;SDS011;6107;49.078;8.578;2022-10-23T08:34:59;2.93;;;2.60;;
12088;SDS011;6107;49.078;8.578;2022-10-23T08:37:25;2.80;;;2.50;;
12088;SDS011;6107;49.078;8.578;2022-10-23T08:39:51;3.93;;;1.97;;
12088;SDS011;6107;49.078;8.578;2022-10-23T08:42:18;2.38;;;1.50;;
12088;SDS011;6107;49.078;8.578;2022-10-23T08:45:02;3.20;;;1.80;;
12088;SDS011;6107;49.078;8.578;2022-10-23T08:50:11;2.88;;;2.10;;
12088;SDS011;6107;49.078;8.578;2022-10-23T08:52:46;2.17;;;1.70;;
12088;SDS011;6107;49.078;8.578;2022-10-23T08:55:18;3.90;;;1.25;;
12088;SDS011;6107;49.078;8.578;2022-10-23T09:00:22;3.38;;;1.58;;
12088;SDS011;6107;49.078;8.578;2022-10-23T09:02:51;4.85;;;1.40;;
12088;SDS011;6107;49.078;8.578;2022-10-23T09:05:29;1.75;;;1.40;;
12088;SDS011;6107;49.078;8.578;2022-10-23T09:16:23;3.92;;;1.65;;
12088;SDS011;6107;49.078;8.578;2022-10-23T09:19:01;4.30;;;1.65;;
12088;SDS011;6107;49.078;8.578;2022-10-23T09:21:33;3.30;;;1.50;;
12088;SDS011;6107;49.078;8.578;2022-10-23T09:23:59;1.77;;;1.40;;
12088;SDS011;6107;49.078;8.578;2022-10-23T09:26:25;2.15;;;1.40;;
12088;SDS011;6107;49.078;8.578;2022-10-23T09:28:52;2.92;;;1.77;;
12088;SDS011;6107;49.078;8.578;2022-10-23T09:31:30;1.90;;;1.45;;
12088;SDS011;6107;49.078;8.578;2022-10-23T09:33:57;2.33;;;1.35;;
12088;SDS011;6107;49.078;8.578;2022-10-23T09:36:25;5.53;;;1.27;;
12088;SDS011;6107;49.078;8.578;2022-10-23T09:38:54;1.48;;;1.27;;
12088;SDS011;6107;49.078;8.578;2022-10-23T09:41:26;3.40;;;1.20;;
12088;SDS011;6107;49.078;8.578;2022-10-23T09:49:02;3.20;;;1.10;;
12088;SDS011;6107;49.078;8.578;2022-10-23T09:51:28;4.18;;;1.30;;
12088;SDS011;6107;49.078;8.578;2022-10-23T09:53:54;2.45;;;1.70;;
12088;SDS011;6107;49.078;8.578;2022-10-23T09:58:55;5.45;;;1.45;;
12088;SDS011;6107;49.078;8.578;2022-10-23T10:01:27;2.65;;;1.48;;
12088;SDS011;6107;49.078;8.578;2022-10-23T10:04:13;3.90;;;1.65;;
12088;SDS011;6107;49.078;8.578;2022-10-23T10:06:39;2.40;;;1.60;;
12088;SDS011;6107;49.078;8.578;2022-10-23T10:09:06;3.65;;;1.80;;
12088;SDS011;6107;49.078;8.578;2022-10-23T10:11:48;3.22;;;1.65;;
12088;SDS011;6107;49.078;8.578;2022-10-23T10:14:25;4.03;;;1.73;;
12088;SDS011;6107;49.078;8.578;2022-10-23T10:20:11;3.00;;;1.60;;
12088;SDS011;6107;49.078;8.578;2022-10-23T10:22:45;1.73;;;1.40;;
12088;SDS011;6107;49.078;8.578;2022-10-23T10:25:32;5.03;;;1.60;;
12088;SDS011;6107;49.078;8.578;2022-10-23T10:36:43;5.13;;;1.73;;
12088;SDS011;6107;49.078;8.578;2022-10-23T10:39:26;1.70;;;1.35;;
12088;SDS011;6107;49.078;8.578;2022-10-23T10:47:32;5.20;;;2.95;;
12088;SDS011;6107;49.078;8.578;2022-10-23T10:50:17;2.97;;;2.03;;
12088;SDS011;6107;49.078;8.578;2022-10-23T10:55:54;2.00;;;1.30;;
12088;SDS011;6107;49.078;8.578;2022-10-23T10:59:09;3.33;;;1.45;;
12088;SDS011;6107;49.078;8.578;2022-10-23T11:01:27;4.28;;;1.40;;
12088;SDS011;6107;49.078;8.578;2022-10-23T11:04:13;3.08;;;1.33;;
12088;SDS011;6107;49.078;8.578;2022-10-23T11:06:42;3.22;;;1.33;;
12088;SDS011;6107;49.078;8.578;2022-10-23T11:09:16;3.50;;;1.20;;
12088;SDS011;6107;49.078;8.578;2022-10-23T11:11:45;1.98;;;1.13;;
12088;SDS011;6107;49.078;8.578;2022-10-23T11:14:21;2.15;;;1.23;;
12088;SDS011;6107;49.078;8.578;2022-10-23T11:16:53;1.38;;;1.10;;
12088;SDS011;6107;49.078;8.578;2022-10-23T11:19:29;1.98;;;1.30;;
12088;SDS011;6107;49.078;8.578;2022-10-23T11:22:04;1.65;;;1.27;;
12088;SDS011;6107;49.078;8.578;2022-10-23T11:24:49;3.22;;;1.42;;
12088;SDS011;6107;49.078;8.578;2022-10-23T11:27:40;1.75;;;1.15;;
12088;SDS011;6107;49.078;8.578;2022-10-23T11:30:17;5.63;;;1.65;;
12088;SDS011;6107;49.078;8.578;2022-10-23T11:35:48;2.45;;;1.35;;
12088;SDS011;6107;49.078;8.578;2022-10-23T11:38:18;2.97;;;1.40;;
12088;SDS011;6107;49.078;8.578;2022-10-23T11:40:55;3.88;;;1.23;;
12088;SDS011;6107;49.078;8.578;2022-10-23T11:43:28;2.00;;;1.42;;
12088;SDS011;6107;49.078;8.578;2022-10-23T11:45:56;3.35;;;1.60;;
12088;SDS011;6107;49.078;8.578;2022-10-23T11:48:33;5.60;;;1.77;;
12088;SDS011;6107;49.078;8.578;2022-10-23T11:51:01;3.05;;;1.30;;
12088;SDS011;6107;49.078;8.578;2022-10-23T11:56:00;3.03;;;1.60;;
12088;SDS011;6107;49.078;8.578;2022-10-23T11:58:40;2.58;;;1.40;;
12088;SDS011;6107;49.078;8.578;2022-10-23T12:01:16;2.00;;;1.27;;
12088;SDS011;6107;49.078;8.578;2022-10-23T12:03:51;2.90;;;1.23;;
12088;SDS011;6107;49.078;8.578;2022-10-23T12:06:22;1.80;;;1.48;;
12088;SDS011;6107;49.078;8.578;2022-10-23T12:08:52;5.63;;;1.40;;
12088;SDS011;6107;49.078;8.578;2022-10-23T12:11:27;5.53;;;1.40;;
12088;SDS011;6107;49.078;8.578;2022-10-23T12:14:23;3.60;;;1.55;;
12088;SDS011;6107;49.078;8.578;2022-10-23T12:16:54;3.08;;;1.23;;
12088;SDS011;6107;49.078;8.578;2022-10-23T12:19:20;2.17;;;1.30;;
12088;SDS011;6107;49.078;8.578;2022-10-23T12:21:52;3.88;;;1.65;;
12088;SDS011;6107;49.078;8.578;2022-10-23T12:29:48;2.05;;;1.30;;
12088;SDS011;6107;49.078;8.578;2022-10-23T12:32:27;3.70;;;1.50;;
12088;SDS011;6107;49.078;8.578;2022-10-23T12:38:09;2.17;;;1.50;;
12088;SDS011;6107;49.078;8.578;2022-10-23T12:40:38;3.45;;;1.63;;
12088;SDS011;6107;49.078;8.578;2022-10-23T12:43:17;2.58;;;1.48;;
12088;SDS011;6107;49.078;8.578;2022-10-23T12:45:48;2.47;;;1.45;;
12088;SDS011;6107;49.078;8.578;2022-10-23T12:48:17;1.60;;;1.23;;
12088;SDS011;6107;49.078;8.578;2022-10-23T12:50:46;4.20;;;1.42;;
12088;SDS011;6107;49.078;8.578;2022-10-23T12:53:14;5.13;;;1.58;;
12088;SDS011;6107;49.078;8.578;2022-10-23T12:58:21;1.70;;;1.20;;
12088;SDS011;6107;49.078;8.578;2022-10-23T13:00:59;3.95;;;1.50;;
12088;SDS011;6107;49.078;8.578;2022-10-23T13:03:25;3.40;;;1.33;;
12088;SDS011;6107;49.078;8.578;2022-10-23T13:05:53;4.85;;;1.40;;
12088;SDS011;6107;49.078;8.578;2022-10-23T13:08:31;2.50;;;1.45;;
12088;SDS011;6107;49.078;8.578;2022-10-23T13:11:00;1.95;;;1.30;;
12088;SDS011;6107;49.078;8.578;2022-10-23T13:13:27;3.92;;;1.00;;
12088;SDS011;6107;49.078;8.578;2022-10-23T13:15:52;4.38;;;1.55;;
12088;SDS011;6107;49.078;8.578;2022-10-23T13:18:18;1.73;;;1.30;;
12088;SDS011;6107;49.078;8.578;2022-10-23T13:23:17;1.88;;;1.20;;
12088;SDS011;6107;49.078;8.578;2022-10-23T13:25:51;3.65;;;1.30;;
12088;SDS011;6107;49.078;8.578;2022-10-23T13:28:39;2.05;;;1.13;;
12088;SDS011;6107;49.078;8.578;2022-10-23T13:33:40;2.38;;;1.00;;
12088;SDS011;6107;49.078;8.578;2022-10-23T13:39:13;4.82;;;1.42;;
12088;SDS011;6107;49.078;8.578;2022-10-23T13:41:41;2.00;;;1.30;;
12088;SDS011;6107;49.078;8.578;2022-10-23T13:44:10;3.30;;;1.30;;
12088;SDS011;6107;49.078;8.578;2022-10-23T13:46:37;2.72;;;1.58;;
12088;SDS011;6107;49.078;8.578;2022-10-23T13:49:03;2.55;;;1.20;;
12088;SDS011;6107;49.078;8.578;2022-10-23T13:51:29;4.10;;;1.20;;
12088;SDS011;6107;49.078;8.578;2022-10-23T13:53:58;1.45;;;1.10;;
12088;SDS011;6107;49.078;8.578;2022-10-23T13:56:24;2.85;;;1.13;;
12088;SDS011;6107;49.078;8.578;2022-10-23T13:58:51;2.60;;;1.30;;
12088;SDS011;6107;49.078;8.578;2022-10-23T14:01:31;2.35;;;1.13;;
12088;SDS011;6107;49.078;8.578;2022-10-23T14:03:59;4.78;;;1.05;;
12088;SDS011;6107;49.078;8.578;2022-10-23T14:06:28;2.78;;;1.40;;
12088;SDS011;6107;49.078;8.578;2022-10-23T14:08:54;3.80;;;1.00;;
12088;SDS011;6107;49.078;8.578;2022-10-23T14:11:20;3.67;;;1.20;;
12088;SDS011;6107;49.078;8.578;2022-10-23T14:13:45;3.53;;;1.00;;
12088;SDS011;6107;49.078;8.578;2022-10-23T14:16:12;2.80;;;1.30;;
12088;SDS011;6107;49.078;8.578;2022-10-23T14:18:39;4.63;;;1.15;;
12088;SDS011;6107;49.078;8.578;2022-10-23T14:21:05;4.10;;;1.30;;
12088;SDS011;6107;49.078;8.578;2022-10-23T14:23:32;4.65;;;1.30;;
12088;SDS011;6107;49.078;8.578;2022-10-23T14:26:07;4.45;;;1.08;;
12088;SDS011;6107;49.078;8.578;2022-10-23T14:28:34;4.22;;;1.20;;
12088;SDS011;6107;49.078;8.578;2022-10-23T14:31:07;7.72;;;1.55;;
12088;SDS011;6107;49.078;8.578;2022-10-23T14:33:40;5.75;;;1.17;;
12088;SDS011;6107;49.078;8.578;2022-10-23T14:36:07;3.65;;;1.20;;
12088;SDS011;6107;49.078;8.578;2022-10-23T14:38:33;2.78;;;1.27;;
12088;SDS011;6107;49.078;8.578;2022-10-23T14:40:59;1.55;;;1.00;;
12088;SDS011;6107;49.078;8.578;2022-10-23T14:43:25;6.35;;;1.40;;
12088;SDS011;6107;49.078;8.578;2022-10-23T14:45:50;7.78;;;1.27;;
12088;SDS011;6107;49.078;8.578;2022-10-23T14:48:16;5.72;;;1.70;;
12088;SDS011;6107;49.078;8.578;2022-10-23T14:50:43;1.65;;;1.00;;
12088;SDS011;6107;49.078;8.578;2022-10-23T14:53:10;3.28;;;1.20;;
12088;SDS011;6107;49.078;8.578;2022-10-23T14:55:36;5.60;;;1.38;;
12088;SDS011;6107;49.078;8.578;2022-10-23T14:58:02;6.43;;;1.90;;
12088;SDS011;6107;49.078;8.578;2022-10-23T15:00:28;5.50;;;1.02;;
12088;SDS011;6107;49.078;8.578;2022-10-23T15:02:53;13.65;;;1.40;;
12088;SDS011;6107;49.078;8.578;2022-10-23T15:05:19;5.68;;;1.27;;
12088;SDS011;6107;49.078;8.578;2022-10-23T15:07:44;4.95;;;1.33;;
12088;SDS011;6107;49.078;8.578;2022-10-23T15:10:10;8.57;;;1.73;;
12088;SDS011;6107;49.078;8.578;2022-10-23T15:12:36;2.95;;;1.30;;
12088;SDS011;6107;49.078;8.578;2022-10-23T15:15:03;11.25;;;1.60;;
12088;SDS011;6107;49.078;8.578;2022-10-23T15:17:30;8.45;;;1.40;;
12088;SDS011;6107;49.078;8.578;2022-10-23T15:19:57;5.53;;;1.25;;
12088;SDS011;6107;49.078;8.578;2022-10-23T15:22:23;3.88;;;1.50;;
12088;SDS011;6107;49.078;8.578;2022-10-23T15:24:49;5.82;;;1.35;;
12088;SDS011;6107;49.078;8.578;2022-10-23T15:27:16;6.40;;;1.55;;
12088;SDS011;6107;49.078;8.578;2022-10-23T15:29:42;5.57;;;1.48;;
12088;SDS011;6107;49.078;8.578;2022-10-23T15:32:08;6.03;;;1.40;;
12088;SDS011;6107;49.078;8.578;2022-10-23T15:34:34;8.38;;;1.15;;
12088;SDS011;6107;49.078;8.578;2022-10-23T15:37:01;6.00;;;1.73;;
12088;SDS011;6107;49.078;8.578;2022-10-23T15:39:28;10.10;;;1.65;;
12088;SDS011;6107;49.078;8.578;2022-10-23T15:41:59;5.97;;;1.48;;
12088;SDS011;6107;49.078;8.578;2022-10-23T15:44:26;6.72;;;1.27;;
12088;SDS011;6107;49.078;8.578;2022-10-23T15:46:53;7.57;;;1.73;;
12088;SDS011;6107;49.078;8.578;2022-10-23T15:49:21;6.82;;;1.40;;
12088;SDS011;6107;49.078;8.578;2022-10-23T15:51:47;6.38;;;1.55;;
12088;SDS011;6107;49.078;8.578;2022-10-23T15:54:13;4.95;;;1.77;;
12088;SDS011;6107;49.078;8.578;2022-10-23T15:56:41;4.40;;;1.70;;
12088;SDS011;6107;49.078;8.578;2022-10-23T15:59:07;8.25;;;1.52;;
12088;SDS011;6107;49.078;8.578;2022-10-23T16:01:33;13.85;;;2.45;;
12088;SDS011;6107;49.078;8.578;2022-10-23T16:03:58;4.38;;;1.75;;
12088;SDS011;6107;49.078;8.578;2022-10-23T16:06:24;7.40;;;1.50;;
12088;SDS011;6107;49.078;8.578;2022-10-23T16:08:49;7.45;;;2.03;;
12088;SDS011;6107;49.078;8.578;2022-10-23T16:11:16;10.32;;;1.90;;
12088;SDS011;6107;49.078;8.578;2022-10-23T16:13:43;12.55;;;1.65;;
12088;SDS011;6107;49.078;8.578;2022-10-23T16:16:09;12.35;;;1.95;;
12088;SDS011;6107;49.078;8.578;2022-10-23T16:18:36;6.10;;;1.80;;
12088;SDS011;6107;49.078;8.578;2022-10-23T16:21:02;6.57;;;1.70;;
12088;SDS011;6107;49.078;8.578;2022-10-23T16:23:28;7.95;;;1.65;;
12088;SDS011;6107;49.078;8.578;2022-10-23T16:25:54;9.18;;;2.03;;
12088;SDS011;6107;49.078;8.578;2022-10-23T16:28:19;5.20;;;1.58;;
12088;SDS011;6107;49.078;8.578;2022-10-23T16:30:45;6.45;;;1.70;;
12088;SDS011;6107;49.078;8.578;2022-10-23T16:33:11;6.85;;;2.40;;
12088;SDS011;6107;49.078;8.578;2022-10-23T16:35:37;7.63;;;1.83;;
12088;SDS011;6107;49.078;8.578;2022-10-23T16:38:03;12.52;;;1.98;;
12088;SDS011;6107;49.078;8.578;2022-10-23T16:40:29;6.00;;;1.63;;